sensor_id;sensor_type;location;lat;lon;timestamp;temperature;humidity
18361;SHT31;9308;48.550;9.108;2023-04-22T00:00:03;13.38;62.54
18361;SHT31;9308;48.550;9.108;2023-04-22T00:02:29;13.51;62.39
18361;SHT31;9308;48.550;9.108;2023-04-22T00:04:54;13.38;62.24
18361;SHT31;9308;48.550;9.108;2023-04-22T00:07:21;13.39;61.80
18361;SHT31;9308;48.550;9.108;2023-04-22T00:09:47;13.35;62.40
18361;SHT31;9308;48.550;9.108;2023-04-22T00:12:12;13.32;62.39
18361;SHT31;9308;48.550;9.108;2023-04-22T00:14:38;13.45;62.05
18361;SHT31;9308;48.550;9.108;2023-04-22T00:17:03;13.49;61.11
18361;SHT31;9308;48.550;9.108;2023-04-22T00:19:28;13.32;62.10
18361;SHT31;9308;48.550;9.108;2023-04-22T00:21:55;13.23;62.33
18361;SHT31;9308;48.550;9.108;2023-04-22T00:24:20;13.21;61.86
18361;SHT31;9308;48.550;9.108;2023-04-22T00:26:46;13.32;61.12
18361;SHT31;9308;48.550;9.108;2023-04-22T00:29:11;13.27;62.03
18361;SHT31;9308;48.550;9.108;2023-04-22T00:31:36;13.17;62.54
18361;SHT31;9308;48.550;9.108;2023-04-22T00:34:02;13.16;61.56
18361;SHT31;9308;48.550;9.108;2023-04-22T00:36:27;13.18;61.87
18361;SHT31;9308;48.550;9.108;2023-04-22T00:38:53;13.25;62.10
18361;SHT31;9308;48.550;9.108;2023-04-22T00:41:18;13.27;62.09
18361;SHT31;9308;48.550;9.108;2023-04-22T00:43:45;13.25;61.80
18361;SHT31;9308;48.550;9.108;2023-04-22T00:46:10;13.28;61.90
18361;SHT31;9308;48.550;9.108;2023-04-22T00:48:36;13.23;60.91
18361;SHT31;9308;48.550;9.108;2023-04-22T00:51:02;13.24;61.91
18361;SHT31;9308;48.550;9.108;2023-04-22T00:53:28;13.20;61.67
18361;SHT31;9308;48.550;9.108;2023-04-22T00:55:53;13.18;61.39
18361;SHT31;9308;48.550;9.108;2023-04-22T00:58:20;13.07;62.52
18361;SHT31;9308;48.550;9.108;2023-04-22T01:00:45;13.24;61.09
18361;SHT31;9308;48.550;9.108;2023-04-22T01:03:11;13.03;62.35
18361;SHT31;9308;48.550;9.108;2023-04-22T01:05:36;13.14;61.89
18361;SHT31;9308;48.550;9.108;2023-04-22T01:08:02;13.14;61.88
18361;SHT31;9308;48.550;9.108;2023-04-22T01:10:28;12.97;62.66
18361;SHT31;9308;48.550;9.108;2023-04-22T01:12:53;12.96;62.51
18361;SHT31;9308;48.550;9.108;2023-04-22T01:15:19;12.83;63.08
18361;SHT31;9308;48.550;9.108;2023-04-22T01:17:44;12.70;62.82
18361;SHT31;9308;48.550;9.108;2023-04-22T01:20:10;12.66;62.71
18361;SHT31;9308;48.550;9.108;2023-04-22T01:22:40;12.66;63.09
18361;SHT31;9308;48.550;9.108;2023-04-22T01:25:07;12.72;63.34
18361;SHT31;9308;48.550;9.108;2023-04-22T01:27:33;12.58;64.12
18361;SHT31;9308;48.550;9.108;2023-04-22T01:29:59;12.48;64.34
18361;SHT31;9308;48.550;9.108;2023-04-22T01:32:24;12.65;63.47
18361;SHT31;9308;48.550;9.108;2023-04-22T01:34:50;12.75;62.90
18361;SHT31;9308;48.550;9.108;2023-04-22T01:37:16;12.80;63.17
18361;SHT31;9308;48.550;9.108;2023-04-22T01:39:41;12.73;63.04
18361;SHT31;9308;48.550;9.108;2023-04-22T01:42:07;12.53;63.21
18361;SHT31;9308;48.550;9.108;2023-04-22T01:44:32;12.63;64.08
18361;SHT31;9308;48.550;9.108;2023-04-22T01:46:58;12.65;64.52
18361;SHT31;9308;48.550;9.108;2023-04-22T01:49:23;12.49;64.99
18361;SHT31;9308;48.550;9.108;2023-04-22T01:51:49;12.23;66.31
18361;SHT31;9308;48.550;9.108;2023-04-22T01:54:14;12.55;64.67
18361;SHT31;9308;48.550;9.108;2023-04-22T01:56:40;12.48;64.28
18361;SHT31;9308;48.550;9.108;2023-04-22T01:59:07;12.37;64.55
18361;SHT31;9308;48.550;9.108;2023-04-22T02:01:33;12.42;64.42
18361;SHT31;9308;48.550;9.108;2023-04-22T02:03:58;12.42;64.14
18361;SHT31;9308;48.550;9.108;2023-04-22T02:06:24;12.32;64.32
18361;SHT31;9308;48.550;9.108;2023-04-22T02:08:50;12.40;63.33
18361;SHT31;9308;48.550;9.108;2023-04-22T02:11:15;12.38;63.71
18361;SHT31;9308;48.550;9.108;2023-04-22T02:13:40;12.35;64.22
18361;SHT31;9308;48.550;9.108;2023-04-22T02:16:06;12.35;64.04
18361;SHT31;9308;48.550;9.108;2023-04-22T02:18:32;12.21;64.34
18361;SHT31;9308;48.550;9.108;2023-04-22T02:20:58;12.31;64.38
18361;SHT31;9308;48.550;9.108;2023-04-22T02:23:24;12.03;65.19
18361;SHT31;9308;48.550;9.108;2023-04-22T02:25:50;12.20;64.69
18361;SHT31;9308;48.550;9.108;2023-04-22T02:28:16;12.28;64.68
18361;SHT31;9308;48.550;9.108;2023-04-22T02:30:42;12.16;64.81
18361;SHT31;9308;48.550;9.108;2023-04-22T02:33:07;12.18;65.50
18361;SHT31;9308;48.550;9.108;2023-04-22T02:35:33;12.10;65.29
18361;SHT31;9308;48.550;9.108;2023-04-22T02:37:58;12.16;65.04
18361;SHT31;9308;48.550;9.108;2023-04-22T02:40:24;12.25;64.99
18361;SHT31;9308;48.550;9.108;2023-04-22T02:42:49;12.03;65.24
18361;SHT31;9308;48.550;9.108;2023-04-22T02:45:15;12.04;65.33
18361;SHT31;9308;48.550;9.108;2023-04-22T02:47:40;11.93;65.81
18361;SHT31;9308;48.550;9.108;2023-04-22T02:50:06;11.86;66.19
18361;SHT31;9308;48.550;9.108;2023-04-22T02:52:32;11.83;66.50
18361;SHT31;9308;48.550;9.108;2023-04-22T02:54:58;11.72;66.43
18361;SHT31;9308;48.550;9.108;2023-04-22T02:57:23;11.59;66.88
18361;SHT31;9308;48.550;9.108;2023-04-22T02:59:49;11.48;67.31
18361;SHT31;9308;48.550;9.108;2023-04-22T03:02:14;11.52;66.61
18361;SHT31;9308;48.550;9.108;2023-04-22T03:04:39;11.39;66.93
18361;SHT31;9308;48.550;9.108;2023-04-22T03:07:05;11.55;66.56
18361;SHT31;9308;48.550;9.108;2023-04-22T03:09:31;11.49;66.98
18361;SHT31;9308;48.550;9.108;2023-04-22T03:11:56;11.51;66.91
18361;SHT31;9308;48.550;9.108;2023-04-22T03:14:21;11.41;67.68
18361;SHT31;9308;48.550;9.108;2023-04-22T03:16:47;11.58;66.57
18361;SHT31;9308;48.550;9.108;2023-04-22T03:19:12;11.45;66.90
18361;SHT31;9308;48.550;9.108;2023-04-22T03:21:37;11.66;66.73
18361;SHT31;9308;48.550;9.108;2023-04-22T03:24:03;11.49;66.87
18361;SHT31;9308;48.550;9.108;2023-04-22T03:26:28;11.49;66.99
18361;SHT31;9308;48.550;9.108;2023-04-22T03:28:54;11.45;67.37
18361;SHT31;9308;48.550;9.108;2023-04-22T03:31:19;11.37;67.55
18361;SHT31;9308;48.550;9.108;2023-04-22T03:33:45;11.34;67.84
18361;SHT31;9308;48.550;9.108;2023-04-22T03:36:10;11.35;67.97
18361;SHT31;9308;48.550;9.108;2023-04-22T03:38:36;11.27;67.78
18361;SHT31;9308;48.550;9.108;2023-04-22T03:41:01;11.22;67.63
18361;SHT31;9308;48.550;9.108;2023-04-22T03:43:26;11.06;68.15
18361;SHT31;9308;48.550;9.108;2023-04-22T03:45:52;11.00;68.24
18361;SHT31;9308;48.550;9.108;2023-04-22T03:48:17;11.12;67.96
18361;SHT31;9308;48.550;9.108;2023-04-22T03:50:43;11.04;68.62
18361;SHT31;9308;48.550;9.108;2023-04-22T03:53:08;11.21;67.82
18361;SHT31;9308;48.550;9.108;2023-04-22T03:55:33;11.00;68.53
18361;SHT31;9308;48.550;9.108;2023-04-22T03:57:59;11.14;68.17
18361;SHT31;9308;48.550;9.108;2023-04-22T04:00:25;11.03;68.56
18361;SHT31;9308;48.550;9.108;2023-04-22T04:02:50;10.91;69.16
18361;SHT31;9308;48.550;9.108;2023-04-22T04:05:16;10.82;69.68
18361;SHT31;9308;48.550;9.108;2023-04-22T04:07:41;10.84;69.84
18361;SHT31;9308;48.550;9.108;2023-04-22T04:10:07;10.93;69.74
18361;SHT31;9308;48.550;9.108;2023-04-22T04:12:32;11.01;69.43
18361;SHT31;9308;48.550;9.108;2023-04-22T04:14:58;10.97;69.47
18361;SHT31;9308;48.550;9.108;2023-04-22T04:17:23;11.04;69.12
18361;SHT31;9308;48.550;9.108;2023-04-22T04:19:54;11.08;69.27
18361;SHT31;9308;48.550;9.108;2023-04-22T04:22:20;10.99;69.50
18361;SHT31;9308;48.550;9.108;2023-04-22T04:24:45;10.89;69.65
18361;SHT31;9308;48.550;9.108;2023-04-22T04:27:12;10.73;70.23
18361;SHT31;9308;48.550;9.108;2023-04-22T04:29:38;10.86;69.99
18361;SHT31;9308;48.550;9.108;2023-04-22T04:32:04;10.84;70.15
18361;SHT31;9308;48.550;9.108;2023-04-22T04:34:29;10.80;70.42
18361;SHT31;9308;48.550;9.108;2023-04-22T04:36:56;10.84;70.34
18361;SHT31;9308;48.550;9.108;2023-04-22T04:39:23;10.82;70.30
18361;SHT31;9308;48.550;9.108;2023-04-22T04:41:50;10.94;69.93
18361;SHT31;9308;48.550;9.108;2023-04-22T04:44:19;11.00;69.82
18361;SHT31;9308;48.550;9.108;2023-04-22T04:46:45;10.94;69.98
18361;SHT31;9308;48.550;9.108;2023-04-22T04:49:11;11.10;69.99
18361;SHT31;9308;48.550;9.108;2023-04-22T04:51:37;11.06;70.16
18361;SHT31;9308;48.550;9.108;2023-04-22T04:54:03;10.96;70.86
18361;SHT31;9308;48.550;9.108;2023-04-22T04:56:28;10.93;71.03
18361;SHT31;9308;48.550;9.108;2023-04-22T04:58:55;11.01;71.29
18361;SHT31;9308;48.550;9.108;2023-04-22T05:01:20;11.11;70.95
18361;SHT31;9308;48.550;9.108;2023-04-22T05:03:46;11.24;70.62
18361;SHT31;9308;48.550;9.108;2023-04-22T05:06:12;11.20;70.38
18361;SHT31;9308;48.550;9.108;2023-04-22T05:08:37;11.20;70.50
18361;SHT31;9308;48.550;9.108;2023-04-22T05:11:02;11.15;70.70
18361;SHT31;9308;48.550;9.108;2023-04-22T05:13:28;11.12;71.04
18361;SHT31;9308;48.550;9.108;2023-04-22T05:15:53;11.21;70.97
18361;SHT31;9308;48.550;9.108;2023-04-22T05:18:20;11.32;70.48
18361;SHT31;9308;48.550;9.108;2023-04-22T05:20:46;11.32;70.99
18361;SHT31;9308;48.550;9.108;2023-04-22T05:23:11;11.38;70.92
18361;SHT31;9308;48.550;9.108;2023-04-22T05:25:37;11.44;70.70
18361;SHT31;9308;48.550;9.108;2023-04-22T05:28:02;11.45;71.12
18361;SHT31;9308;48.550;9.108;2023-04-22T05:30:28;11.70;70.24
18361;SHT31;9308;48.550;9.108;2023-04-22T05:32:53;11.85;69.84
18361;SHT31;9308;48.550;9.108;2023-04-22T05:35:19;12.16;68.83
18361;SHT31;9308;48.550;9.108;2023-04-22T05:37:44;12.01;69.66
18361;SHT31;9308;48.550;9.108;2023-04-22T05:40:10;12.23;68.48
18361;SHT31;9308;48.550;9.108;2023-04-22T05:42:35;12.28;68.77
18361;SHT31;9308;48.550;9.108;2023-04-22T05:45:01;12.20;68.89
18361;SHT31;9308;48.550;9.108;2023-04-22T05:47:26;12.34;68.68
18361;SHT31;9308;48.550;9.108;2023-04-22T05:49:52;12.38;68.79
18361;SHT31;9308;48.550;9.108;2023-04-22T05:52:17;12.65;67.87
18361;SHT31;9308;48.550;9.108;2023-04-22T05:54:43;12.84;67.37
18361;SHT31;9308;48.550;9.108;2023-04-22T05:57:08;12.89;67.92
18361;SHT31;9308;48.550;9.108;2023-04-22T05:59:34;12.93;68.09
18361;SHT31;9308;48.550;9.108;2023-04-22T06:01:59;13.07;67.78
18361;SHT31;9308;48.550;9.108;2023-04-22T06:04:25;13.11;67.80
18361;SHT31;9308;48.550;9.108;2023-04-22T06:06:50;13.32;67.37
18361;SHT31;9308;48.550;9.108;2023-04-22T06:09:18;13.54;66.75
18361;SHT31;9308;48.550;9.108;2023-04-22T06:11:45;13.76;65.96
18361;SHT31;9308;48.550;9.108;2023-04-22T06:14:10;13.90;65.64
18361;SHT31;9308;48.550;9.108;2023-04-22T06:16:37;13.86;66.73
18361;SHT31;9308;48.550;9.108;2023-04-22T06:19:02;13.94;66.14
18361;SHT31;9308;48.550;9.108;2023-04-22T06:21:28;13.89;65.49
18361;SHT31;9308;48.550;9.108;2023-04-22T06:23:53;14.22;65.27
18361;SHT31;9308;48.550;9.108;2023-04-22T06:26:18;13.97;66.55
18361;SHT31;9308;48.550;9.108;2023-04-22T06:28:44;14.03;66.69
18361;SHT31;9308;48.550;9.108;2023-04-22T06:31:10;14.11;66.31
18361;SHT31;9308;48.550;9.108;2023-04-22T06:33:35;14.16;65.97
18361;SHT31;9308;48.550;9.108;2023-04-22T06:36:01;14.31;66.10
18361;SHT31;9308;48.550;9.108;2023-04-22T06:38:26;14.49;65.12
18361;SHT31;9308;48.550;9.108;2023-04-22T06:40:52;14.45;65.72
18361;SHT31;9308;48.550;9.108;2023-04-22T06:43:17;14.37;65.82
18361;SHT31;9308;48.550;9.108;2023-04-22T06:45:42;14.45;64.78
18361;SHT31;9308;48.550;9.108;2023-04-22T06:48:08;14.49;64.45
18361;SHT31;9308;48.550;9.108;2023-04-22T06:50:33;14.58;64.20
18361;SHT31;9308;48.550;9.108;2023-04-22T06:52:59;14.30;65.69
18361;SHT31;9308;48.550;9.108;2023-04-22T06:55:24;14.44;64.50
18361;SHT31;9308;48.550;9.108;2023-04-22T06:57:49;14.71;64.34
18361;SHT31;9308;48.550;9.108;2023-04-22T07:00:15;14.72;64.66
18361;SHT31;9308;48.550;9.108;2023-04-22T07:02:41;14.95;63.73
18361;SHT31;9308;48.550;9.108;2023-04-22T07:05:06;14.92;63.98
18361;SHT31;9308;48.550;9.108;2023-04-22T07:07:32;14.95;64.64
18361;SHT31;9308;48.550;9.108;2023-04-22T07:09:57;14.90;63.86
18361;SHT31;9308;48.550;9.108;2023-04-22T07:12:23;14.99;63.80
18361;SHT31;9308;48.550;9.108;2023-04-22T07:14:49;15.18;63.51
18361;SHT31;9308;48.550;9.108;2023-04-22T07:17:15;15.47;62.61
18361;SHT31;9308;48.550;9.108;2023-04-22T07:19:43;15.58;62.37
18361;SHT31;9308;48.550;9.108;2023-04-22T07:22:09;15.57;61.65
18361;SHT31;9308;48.550;9.108;2023-04-22T07:24:34;15.72;61.77
18361;SHT31;9308;48.550;9.108;2023-04-22T07:27:00;16.05;61.73
18361;SHT31;9308;48.550;9.108;2023-04-22T07:29:26;15.63;61.03
18361;SHT31;9308;48.550;9.108;2023-04-22T07:31:52;15.28;61.97
18361;SHT31;9308;48.550;9.108;2023-04-22T07:34:17;15.51;62.25
18361;SHT31;9308;48.550;9.108;2023-04-22T07:36:43;15.47;62.70
18361;SHT31;9308;48.550;9.108;2023-04-22T07:39:08;15.73;61.96
18361;SHT31;9308;48.550;9.108;2023-04-22T07:41:34;15.78;62.13
18361;SHT31;9308;48.550;9.108;2023-04-22T07:44:01;15.94;62.56
18361;SHT31;9308;48.550;9.108;2023-04-22T07:46:28;16.00;63.50
18361;SHT31;9308;48.550;9.108;2023-04-22T07:48:53;16.16;63.55
18361;SHT31;9308;48.550;9.108;2023-04-22T07:51:19;16.05;62.14
18361;SHT31;9308;48.550;9.108;2023-04-22T07:53:44;15.87;61.39
18361;SHT31;9308;48.550;9.108;2023-04-22T07:56:10;15.87;61.61
18361;SHT31;9308;48.550;9.108;2023-04-22T07:58:35;15.78;61.93
18361;SHT31;9308;48.550;9.108;2023-04-22T08:01:01;15.73;62.85
18361;SHT31;9308;48.550;9.108;2023-04-22T08:03:26;16.01;62.06
18361;SHT31;9308;48.550;9.108;2023-04-22T08:05:51;15.93;62.09
18361;SHT31;9308;48.550;9.108;2023-04-22T08:08:17;16.33;60.25
18361;SHT31;9308;48.550;9.108;2023-04-22T08:10:43;16.35;60.52
18361;SHT31;9308;48.550;9.108;2023-04-22T08:13:08;16.14;60.23
18361;SHT31;9308;48.550;9.108;2023-04-22T08:15:33;16.27;60.22
18361;SHT31;9308;48.550;9.108;2023-04-22T08:17:59;16.41;59.23
18361;SHT31;9308;48.550;9.108;2023-04-22T08:20:24;16.47;59.62
18361;SHT31;9308;48.550;9.108;2023-04-22T08:22:50;16.93;58.82
18361;SHT31;9308;48.550;9.108;2023-04-22T08:25:21;17.41;59.67
18361;SHT31;9308;48.550;9.108;2023-04-22T08:27:48;17.19;58.24
18361;SHT31;9308;48.550;9.108;2023-04-22T08:30:14;17.06;56.37
18361;SHT31;9308;48.550;9.108;2023-04-22T08:32:40;17.27;56.99
18361;SHT31;9308;48.550;9.108;2023-04-22T08:35:05;17.58;56.61
18361;SHT31;9308;48.550;9.108;2023-04-22T08:37:31;17.64;55.94
18361;SHT31;9308;48.550;9.108;2023-04-22T08:39:58;17.79;53.95
18361;SHT31;9308;48.550;9.108;2023-04-22T08:42:23;17.86;55.44
18361;SHT31;9308;48.550;9.108;2023-04-22T08:44:49;18.34;54.69
18361;SHT31;9308;48.550;9.108;2023-04-22T08:47:15;18.95;53.63
18361;SHT31;9308;48.550;9.108;2023-04-22T08:49:42;19.07;53.77
18361;SHT31;9308;48.550;9.108;2023-04-22T08:52:08;18.93;51.19
18361;SHT31;9308;48.550;9.108;2023-04-22T08:54:35;19.09;53.41
18361;SHT31;9308;48.550;9.108;2023-04-22T08:57:02;19.31;51.06
18361;SHT31;9308;48.550;9.108;2023-04-22T08:59:29;19.16;51.41
18361;SHT31;9308;48.550;9.108;2023-04-22T09:01:56;19.90;51.72
18361;SHT31;9308;48.550;9.108;2023-04-22T09:04:22;20.06;50.11
18361;SHT31;9308;48.550;9.108;2023-04-22T09:06:48;20.39;48.02
18361;SHT31;9308;48.550;9.108;2023-04-22T09:09:14;20.44;47.26
18361;SHT31;9308;48.550;9.108;2023-04-22T09:11:39;20.69;47.70
18361;SHT31;9308;48.550;9.108;2023-04-22T09:14:05;21.00;47.74
18361;SHT31;9308;48.550;9.108;2023-04-22T09:16:32;21.10;46.75
18361;SHT31;9308;48.550;9.108;2023-04-22T09:18:58;21.00;46.64
18361;SHT31;9308;48.550;9.108;2023-04-22T09:21:27;20.82;46.67
18361;SHT31;9308;48.550;9.108;2023-04-22T09:23:54;20.96;47.42
18361;SHT31;9308;48.550;9.108;2023-04-22T09:26:21;20.99;46.98
18361;SHT31;9308;48.550;9.108;2023-04-22T09:28:53;20.82;46.58
18361;SHT31;9308;48.550;9.108;2023-04-22T09:31:20;20.74;46.15
18361;SHT31;9308;48.550;9.108;2023-04-22T09:33:48;21.32;45.88
18361;SHT31;9308;48.550;9.108;2023-04-22T09:36:13;21.23;46.56
18361;SHT31;9308;48.550;9.108;2023-04-22T09:38:39;21.29;45.25
18361;SHT31;9308;48.550;9.108;2023-04-22T09:41:08;21.47;44.69
18361;SHT31;9308;48.550;9.108;2023-04-22T09:43:36;21.57;45.73
18361;SHT31;9308;48.550;9.108;2023-04-22T09:46:02;22.23;45.01
18361;SHT31;9308;48.550;9.108;2023-04-22T09:48:27;22.37;44.44
18361;SHT31;9308;48.550;9.108;2023-04-22T09:50:53;22.70;41.73
18361;SHT31;9308;48.550;9.108;2023-04-22T09:53:20;22.52;42.65
18361;SHT31;9308;48.550;9.108;2023-04-22T09:55:53;22.60;39.68
18361;SHT31;9308;48.550;9.108;2023-04-22T09:58:20;22.92;39.72
18361;SHT31;9308;48.550;9.108;2023-04-22T10:00:53;22.74;37.95
18361;SHT31;9308;48.550;9.108;2023-04-22T10:03:21;23.56;37.17
18361;SHT31;9308;48.550;9.108;2023-04-22T10:05:47;22.81;37.08
18361;SHT31;9308;48.550;9.108;2023-04-22T10:08:14;23.28;37.59
18361;SHT31;9308;48.550;9.108;2023-04-22T10:10:40;23.58;37.10
18361;SHT31;9308;48.550;9.108;2023-04-22T10:13:06;24.86;36.56
18361;SHT31;9308;48.550;9.108;2023-04-22T10:15:38;24.60;35.22
18361;SHT31;9308;48.550;9.108;2023-04-22T10:18:07;25.47;36.83
18361;SHT31;9308;48.550;9.108;2023-04-22T10:20:39;26.97;33.30
18361;SHT31;9308;48.550;9.108;2023-04-22T10:23:10;26.60;33.53
18361;SHT31;9308;48.550;9.108;2023-04-22T10:25:38;27.45;32.09
18361;SHT31;9308;48.550;9.108;2023-04-22T10:28:04;29.73;29.17
18361;SHT31;9308;48.550;9.108;2023-04-22T10:30:32;30.10;29.17
18361;SHT31;9308;48.550;9.108;2023-04-22T10:36:25;27.61;30.86
18361;SHT31;9308;48.550;9.108;2023-04-22T10:41:28;26.93;32.38
18361;SHT31;9308;48.550;9.108;2023-04-22T10:43:58;27.08;31.90
18361;SHT31;9308;48.550;9.108;2023-04-22T10:51:44;26.70;30.53
18361;SHT31;9308;48.550;9.108;2023-04-22T10:57:06;29.98;25.93
18361;SHT31;9308;48.550;9.108;2023-04-22T10:59:47;30.91;26.17
18361;SHT31;9308;48.550;9.108;2023-04-22T11:02:13;30.71;27.06
18361;SHT31;9308;48.550;9.108;2023-04-22T11:04:40;31.29;25.66
18361;SHT31;9308;48.550;9.108;2023-04-22T11:07:29;32.60;24.81
18361;SHT31;9308;48.550;9.108;2023-04-22T11:10:08;31.30;22.21
18361;SHT31;9308;48.550;9.108;2023-04-22T11:12:40;31.19;22.99
18361;SHT31;9308;48.550;9.108;2023-04-22T11:15:15;32.59;22.83
18361;SHT31;9308;48.550;9.108;2023-04-22T11:17:43;31.03;22.80
18361;SHT31;9308;48.550;9.108;2023-04-22T11:20:10;30.91;24.39
18361;SHT31;9308;48.550;9.108;2023-04-22T11:22:38;34.37;22.43
18361;SHT31;9308;48.550;9.108;2023-04-22T11:25:04;36.37;20.07
18361;SHT31;9308;48.550;9.108;2023-04-22T11:27:31;38.51;17.87
18361;SHT31;9308;48.550;9.108;2023-04-22T11:32:41;40.03;17.44
18361;SHT31;9308;48.550;9.108;2023-04-22T11:35:09;40.85;17.25
18361;SHT31;9308;48.550;9.108;2023-04-22T11:37:52;42.78;15.97
18361;SHT31;9308;48.550;9.108;2023-04-22T11:40:26;37.52;19.53
18361;SHT31;9308;48.550;9.108;2023-04-22T11:42:52;39.81;18.82
18361;SHT31;9308;48.550;9.108;2023-04-22T11:45:19;34.44;22.57
18361;SHT31;9308;48.550;9.108;2023-04-22T11:47:45;38.20;19.77
18361;SHT31;9308;48.550;9.108;2023-04-22T11:50:12;37.59;18.11
18361;SHT31;9308;48.550;9.108;2023-04-22T11:52:52;40.47;16.18
18361;SHT31;9308;48.550;9.108;2023-04-22T11:55:21;38.58;18.02
18361;SHT31;9308;48.550;9.108;2023-04-22T11:58:01;35.24;21.09
18361;SHT31;9308;48.550;9.108;2023-04-22T12:00:30;37.59;18.87
18361;SHT31;9308;48.550;9.108;2023-04-22T12:03:07;39.20;17.39
18361;SHT31;9308;48.550;9.108;2023-04-22T12:05:46;33.77;21.36
18361;SHT31;9308;48.550;9.108;2023-04-22T12:08:14;36.12;20.62
18361;SHT31;9308;48.550;9.108;2023-04-22T12:13:29;38.58;18.28
18361;SHT31;9308;48.550;9.108;2023-04-22T12:15:57;35.88;20.06
18361;SHT31;9308;48.550;9.108;2023-04-22T12:18:37;32.74;23.26
18361;SHT31;9308;48.550;9.108;2023-04-22T12:23:29;43.79;14.69
18361;SHT31;9308;48.550;9.108;2023-04-22T12:25:54;46.28;15.23
18361;SHT31;9308;48.550;9.108;2023-04-22T12:28:20;47.27;14.70
18361;SHT31;9308;48.550;9.108;2023-04-22T12:30:46;45.07;14.16
18361;SHT31;9308;48.550;9.108;2023-04-22T12:33:11;43.21;14.94
18361;SHT31;9308;48.550;9.108;2023-04-22T12:35:36;45.88;14.12
18361;SHT31;9308;48.550;9.108;2023-04-22T12:38:02;44.21;15.20
18361;SHT31;9308;48.550;9.108;2023-04-22T12:40:27;43.23;15.44
18361;SHT31;9308;48.550;9.108;2023-04-22T12:42:53;42.31;16.35
18361;SHT31;9308;48.550;9.108;2023-04-22T12:45:19;41.27;16.85
18361;SHT31;9308;48.550;9.108;2023-04-22T12:47:48;40.16;17.08
18361;SHT31;9308;48.550;9.108;2023-04-22T12:50:13;42.92;15.31
18361;SHT31;9308;48.550;9.108;2023-04-22T12:52:39;42.64;16.04
18361;SHT31;9308;48.550;9.108;2023-04-22T12:55:05;43.36;15.36
18361;SHT31;9308;48.550;9.108;2023-04-22T12:57:31;39.68;17.57
18361;SHT31;9308;48.550;9.108;2023-04-22T12:59:57;35.65;19.62
18361;SHT31;9308;48.550;9.108;2023-04-22T13:02:22;31.68;23.93
18361;SHT31;9308;48.550;9.108;2023-04-22T13:04:48;29.73;26.74
18361;SHT31;9308;48.550;9.108;2023-04-22T13:07:13;29.33;28.34
18361;SHT31;9308;48.550;9.108;2023-04-22T13:09:40;28.23;29.09
18361;SHT31;9308;48.550;9.108;2023-04-22T13:12:05;27.29;29.56
18361;SHT31;9308;48.550;9.108;2023-04-22T13:14:31;26.72;31.34
18361;SHT31;9308;48.550;9.108;2023-04-22T13:16:56;27.08;30.14
18361;SHT31;9308;48.550;9.108;2023-04-22T13:19:22;26.78;29.23
18361;SHT31;9308;48.550;9.108;2023-04-22T13:21:49;26.59;29.79
18361;SHT31;9308;48.550;9.108;2023-04-22T13:24:15;26.73;29.12
18361;SHT31;9308;48.550;9.108;2023-04-22T13:26:40;26.62;30.26
18361;SHT31;9308;48.550;9.108;2023-04-22T13:29:06;25.96;30.81
18361;SHT31;9308;48.550;9.108;2023-04-22T13:31:36;25.76;31.18
18361;SHT31;9308;48.550;9.108;2023-04-22T13:34:02;25.39;32.67
18361;SHT31;9308;48.550;9.108;2023-04-22T13:36:28;25.66;31.29
18361;SHT31;9308;48.550;9.108;2023-04-22T13:38:53;25.56;31.55
18361;SHT31;9308;48.550;9.108;2023-04-22T13:41:19;25.33;33.54
18361;SHT31;9308;48.550;9.108;2023-04-22T13:43:44;24.93;33.03
18361;SHT31;9308;48.550;9.108;2023-04-22T13:46:09;24.49;34.28
18361;SHT31;9308;48.550;9.108;2023-04-22T13:48:35;24.71;34.33
18361;SHT31;9308;48.550;9.108;2023-04-22T13:51:01;24.38;34.28
18361;SHT31;9308;48.550;9.108;2023-04-22T13:53:26;24.23;34.02
18361;SHT31;9308;48.550;9.108;2023-04-22T13:55:52;24.45;33.92
18361;SHT31;9308;48.550;9.108;2023-04-22T13:58:17;24.33;34.33
18361;SHT31;9308;48.550;9.108;2023-04-22T14:00:43;24.61;35.79
18361;SHT31;9308;48.550;9.108;2023-04-22T14:03:08;24.81;35.61
18361;SHT31;9308;48.550;9.108;2023-04-22T14:05:33;24.36;35.89
18361;SHT31;9308;48.550;9.108;2023-04-22T14:07:59;24.48;34.50
18361;SHT31;9308;48.550;9.108;2023-04-22T14:10:25;24.86;35.76
18361;SHT31;9308;48.550;9.108;2023-04-22T14:12:50;24.69;33.57
18361;SHT31;9308;48.550;9.108;2023-04-22T14:15:16;24.64;33.76
18361;SHT31;9308;48.550;9.108;2023-04-22T14:17:41;24.48;34.17
18361;SHT31;9308;48.550;9.108;2023-04-22T14:20:08;24.21;35.54
18361;SHT31;9308;48.550;9.108;2023-04-22T14:22:35;23.74;35.85
18361;SHT31;9308;48.550;9.108;2023-04-22T14:25:01;23.58;36.19
18361;SHT31;9308;48.550;9.108;2023-04-22T14:27:26;23.43;38.15
18361;SHT31;9308;48.550;9.108;2023-04-22T14:29:51;23.40;37.43
18361;SHT31;9308;48.550;9.108;2023-04-22T14:32:20;23.20;37.74
18361;SHT31;9308;48.550;9.108;2023-04-22T14:34:46;23.36;36.57
18361;SHT31;9308;48.550;9.108;2023-04-22T14:37:12;23.28;36.78
18361;SHT31;9308;48.550;9.108;2023-04-22T14:39:37;23.51;36.47
18361;SHT31;9308;48.550;9.108;2023-04-22T14:42:03;23.18;36.54
18361;SHT31;9308;48.550;9.108;2023-04-22T14:44:29;22.94;37.83
18361;SHT31;9308;48.550;9.108;2023-04-22T14:46:54;23.20;38.38
18361;SHT31;9308;48.550;9.108;2023-04-22T14:49:20;23.11;38.90
18361;SHT31;9308;48.550;9.108;2023-04-22T14:51:46;23.36;38.25
18361;SHT31;9308;48.550;9.108;2023-04-22T14:54:11;23.23;39.37
18361;SHT31;9308;48.550;9.108;2023-04-22T14:56:37;22.85;37.31
18361;SHT31;9308;48.550;9.108;2023-04-22T14:59:02;22.67;39.14
18361;SHT31;9308;48.550;9.108;2023-04-22T15:01:27;22.65;38.01
18361;SHT31;9308;48.550;9.108;2023-04-22T15:03:53;22.81;37.50
18361;SHT31;9308;48.550;9.108;2023-04-22T15:06:19;22.91;37.29
18361;SHT31;9308;48.550;9.108;2023-04-22T15:08:44;23.06;36.72
18361;SHT31;9308;48.550;9.108;2023-04-22T15:11:10;23.20;36.83
18361;SHT31;9308;48.550;9.108;2023-04-22T15:13:35;23.43;36.15
18361;SHT31;9308;48.550;9.108;2023-04-22T15:16:00;26.76;31.76
18361;SHT31;9308;48.550;9.108;2023-04-22T15:18:26;26.45;32.37
18361;SHT31;9308;48.550;9.108;2023-04-22T15:20:52;27.82;31.69
18361;SHT31;9308;48.550;9.108;2023-04-22T15:23:17;30.33;28.04
18361;SHT31;9308;48.550;9.108;2023-04-22T15:25:43;30.63;27.86
18361;SHT31;9308;48.550;9.108;2023-04-22T15:28:08;30.31;28.09
18361;SHT31;9308;48.550;9.108;2023-04-22T15:30:34;27.87;31.51
18361;SHT31;9308;48.550;9.108;2023-04-22T15:32:59;25.97;33.29
18361;SHT31;9308;48.550;9.108;2023-04-22T15:35:25;25.26;34.34
18361;SHT31;9308;48.550;9.108;2023-04-22T15:37:50;25.16;34.23
18361;SHT31;9308;48.550;9.108;2023-04-22T15:40:16;24.88;35.94
18361;SHT31;9308;48.550;9.108;2023-04-22T15:42:42;24.71;36.05
18361;SHT31;9308;48.550;9.108;2023-04-22T15:45:08;24.02;35.88
18361;SHT31;9308;48.550;9.108;2023-04-22T15:47:34;23.70;37.70
18361;SHT31;9308;48.550;9.108;2023-04-22T15:50:00;23.49;37.37
18361;SHT31;9308;48.550;9.108;2023-04-22T15:52:31;23.14;38.39
18361;SHT31;9308;48.550;9.108;2023-04-22T15:54:57;23.09;38.27
18361;SHT31;9308;48.550;9.108;2023-04-22T15:57:22;22.98;39.26
18361;SHT31;9308;48.550;9.108;2023-04-22T15:59:48;23.11;41.49